createdAt,value
2022-07-26T00:00:12.333Z,96267.53
2022-07-26T00:02:39.363Z,96266.34
2022-07-26T00:05:13.980Z,96268.50
2022-07-26T00:07:40.899Z,96273.22
2022-07-26T00:10:07.585Z,96276.16
2022-07-26T00:12:34.130Z,96280.66
2022-07-26T00:15:01.593Z,96273.31
2022-07-26T00:17:28.316Z,96277.72
2022-07-26T00:19:55.066Z,96278.88
2022-07-26T00:22:21.876Z,96274.56
2022-07-26T00:24:48.514Z,96284.34
2022-07-26T00:27:15.123Z,96286.41
2022-07-26T00:29:41.724Z,96288.41
2022-07-26T00:32:08.245Z,96285.94
2022-07-26T00:34:37.282Z,96282.94
2022-07-26T00:37:03.841Z,96294.53
2022-07-26T00:39:30.643Z,96279.00
2022-07-26T00:42:02.770Z,96284.34
2022-07-26T00:44:30.831Z,96289.13
2022-07-26T00:46:57.361Z,96286.66
2022-07-26T00:49:24.271Z,96282.50
2022-07-26T00:51:51.809Z,96291.84
2022-07-26T00:54:19.406Z,96284.94
2022-07-26T00:56:46.331Z,96282.97
2022-07-26T00:59:12.944Z,96285.88
2022-07-26T01:01:39.596Z,96291.63
2022-07-26T01:04:06.548Z,96295.22
2022-07-26T01:06:33.237Z,96294.81
2022-07-26T01:09:00.771Z,96293.41
2022-07-26T01:11:27.408Z,96290.19
2022-07-26T01:13:54.010Z,96294.25
2022-07-26T01:16:20.715Z,96291.50
2022-07-26T01:18:47.541Z,96285.06
2022-07-26T01:21:17.809Z,96293.47
2022-07-26T01:23:45.750Z,96287.50
2022-07-26T01:26:14.637Z,96284.38
2022-07-26T01:28:41.487Z,96289.81
2022-07-26T01:31:08.537Z,96282.41
2022-07-26T01:33:35.610Z,96282.22
2022-07-26T01:36:02.155Z,96282.16
2022-07-26T01:38:31.815Z,96275.97
2022-07-26T01:41:00.487Z,96282.78
2022-07-26T01:43:27.938Z,96285.88
2022-07-26T01:45:54.792Z,96288.59
2022-07-26T01:48:21.510Z,96288.84
2022-07-26T01:50:48.410Z,96290.25
2022-07-26T01:53:18.692Z,96293.63
2022-07-26T01:55:45.640Z,96290.56
2022-07-26T01:58:12.496Z,96292.28
2022-07-26T02:00:39.144Z,96293.72
2022-07-26T02:03:05.746Z,96291.50
2022-07-26T02:05:36.659Z,96296.03
2022-07-26T02:08:03.672Z,96296.59
2022-07-26T02:10:30.828Z,96285.69
2022-07-26T02:13:01.111Z,96299.16
2022-07-26T02:15:30.128Z,96292.16
2022-07-26T02:17:57.029Z,96291.66
2022-07-26T02:20:28.482Z,96298.16
2022-07-26T02:22:55.492Z,96299.53
2022-07-26T02:25:22.064Z,96300.31
2022-07-26T02:27:48.722Z,96294.97
2022-07-26T02:30:17.951Z,96285.88
2022-07-26T02:32:44.558Z,96309.59
2022-07-26T02:35:11.173Z,96304.06
2022-07-26T02:37:42.555Z,96304.56
2022-07-26T02:40:19.062Z,96304.59
2022-07-26T02:42:45.761Z,96301.19
2022-07-26T02:45:13.120Z,96301.06
2022-07-26T02:47:39.821Z,96301.53
2022-07-26T02:50:08.619Z,96296.78
2022-07-26T02:52:35.306Z,96299.56
2022-07-26T02:55:01.970Z,96291.16
2022-07-26T02:57:28.489Z,96293.69
2022-07-26T03:00:14.167Z,96293.84
2022-07-26T03:02:40.713Z,96289.19
2022-07-26T03:05:07.570Z,96294.13
2022-07-26T03:07:34.204Z,96288.91
2022-07-26T03:10:00.837Z,96280.25
2022-07-26T03:12:27.364Z,96286.19
2022-07-26T03:14:54.249Z,96281.50
2022-07-26T03:17:20.859Z,96285.13
2022-07-26T03:19:47.644Z,96281.94
2022-07-26T03:22:15.167Z,96290.66
2022-07-26T03:24:43.042Z,96290.44
2022-07-26T03:27:09.705Z,96289.91
2022-07-26T03:29:36.212Z,96289.22
2022-07-26T03:32:05.847Z,96286.88
2022-07-26T03:34:34.237Z,96286.41
2022-07-26T03:37:01.200Z,96297.47
2022-07-26T03:39:27.793Z,96288.94
2022-07-26T03:41:54.389Z,96274.69
2022-07-26T03:44:23.057Z,96278.88
2022-07-26T03:46:50.050Z,96284.38
2022-07-26T03:49:17.410Z,96282.78
2022-07-26T03:51:44.180Z,96290.31
2022-07-26T03:54:11.267Z,96287.19
2022-07-26T03:56:38.211Z,96286.22
2022-07-26T03:59:04.750Z,96289.13
2022-07-26T04:01:34.071Z,96294.63
2022-07-26T04:04:00.763Z,96291.00
2022-07-26T04:06:27.916Z,96281.66
2022-07-26T04:08:56.319Z,96288.28
2022-07-26T04:11:22.932Z,96284.44
2022-07-26T04:14:15.003Z,96276.75
2022-07-26T04:16:43.769Z,96287.13
2022-07-26T04:19:11.434Z,96290.38
2022-07-26T04:21:38.023Z,96281.13
2022-07-26T04:24:05.642Z,96295.81
2022-07-26T04:26:33.265Z,96294.84
2022-07-26T04:29:00.095Z,96296.03
2022-07-26T04:31:26.672Z,96294.06
2022-07-26T04:33:53.879Z,96288.28
2022-07-26T04:36:20.653Z,96289.72
2022-07-26T04:38:51.050Z,96279.91
2022-07-26T04:41:17.738Z,96282.16
2022-07-26T04:43:44.430Z,96288.78
2022-07-26T04:46:12.005Z,96284.19
2022-07-26T04:48:38.881Z,96275.09
2022-07-26T04:51:05.516Z,96271.47
2022-07-26T04:53:32.426Z,96284.13
2022-07-26T04:55:59.294Z,96287.09
2022-07-26T04:58:25.833Z,96276.84
2022-07-26T05:03:39.130Z,96283.59
2022-07-26T05:06:05.683Z,96282.13
2022-07-26T05:08:32.332Z,96280.38
2022-07-26T05:10:59.229Z,96287.59
2022-07-26T05:13:30.132Z,96282.56
2022-07-26T05:15:57.776Z,96289.63
2022-07-26T05:18:24.327Z,96293.97
2022-07-26T05:20:54.456Z,96288.91
2022-07-26T05:23:21.980Z,96275.81
2022-07-26T05:25:48.816Z,96282.84
2022-07-26T05:28:15.601Z,96284.34
2022-07-26T05:30:42.681Z,96286.84
2022-07-26T05:33:09.620Z,96291.59
2022-07-26T05:35:36.453Z,96285.91
2022-07-26T05:38:03.212Z,96296.22
2022-07-26T05:40:30.449Z,96291.16
2022-07-26T05:42:57.474Z,96286.91
2022-07-26T05:45:26.328Z,96286.03
2022-07-26T05:47:52.959Z,96277.78
2022-07-26T05:50:19.837Z,96284.78
2022-07-26T05:52:46.441Z,96282.44
2022-07-26T05:55:13.923Z,96284.38
2022-07-26T05:57:40.765Z,96282.81
2022-07-26T06:00:07.378Z,96287.59
2022-07-26T06:02:34.768Z,96282.28
2022-07-26T06:05:01.929Z,96290.50
2022-07-26T06:07:29.520Z,96286.66
2022-07-26T06:09:56.139Z,96290.50
2022-07-26T06:12:22.765Z,96293.88
2022-07-26T06:14:53.189Z,96300.16
2022-07-26T06:17:19.927Z,96292.69
2022-07-26T06:19:47.838Z,96300.59
2022-07-26T06:22:14.898Z,96292.28
2022-07-26T06:24:41.383Z,96289.97
2022-07-26T06:27:09.213Z,96290.44
2022-07-26T06:29:39.755Z,96292.00
2022-07-26T06:32:08.750Z,96297.19
2022-07-26T06:34:35.689Z,96288.31
2022-07-26T06:37:02.227Z,96293.50
2022-07-26T06:39:28.753Z,96303.34
2022-07-26T06:41:55.347Z,96296.66
2022-07-26T06:44:22.990Z,96300.53
2022-07-26T06:46:49.695Z,96299.06
2022-07-26T06:49:20.637Z,96300.53
2022-07-26T06:51:49.842Z,96297.28
2022-07-26T06:54:16.348Z,96290.59
2022-07-26T06:56:43.238Z,96297.16
2022-07-26T06:59:10.672Z,96291.41
2022-07-26T07:01:58.119Z,96288.00
2022-07-26T07:04:24.763Z,96299.44
2022-07-26T07:06:51.885Z,96298.00
2022-07-26T07:09:19.491Z,96305.06
2022-07-26T07:11:46.069Z,96299.16
2022-07-26T07:14:15.137Z,96295.38
2022-07-26T07:16:41.921Z,96307.97
2022-07-26T07:19:08.610Z,96304.88
2022-07-26T07:21:35.264Z,96300.56
2022-07-26T07:24:01.970Z,96296.06
2022-07-26T07:26:30.716Z,96297.94
2022-07-26T07:28:59.870Z,96290.09
2022-07-26T07:31:30.863Z,96292.03
2022-07-26T07:34:15.054Z,96288.00
2022-07-26T07:36:41.639Z,96289.97
2022-07-26T07:39:13.787Z,96291.38
2022-07-26T07:41:44.046Z,96288.53
2022-07-26T07:44:11.410Z,96289.31
2022-07-26T07:46:42.619Z,96281.78
2022-07-26T07:49:09.603Z,96285.94
2022-07-26T07:51:38.855Z,96284.94
2022-07-26T07:54:06.062Z,96283.00
2022-07-26T07:56:32.820Z,96281.03
2022-07-26T07:58:59.655Z,96276.56
2022-07-26T08:01:39.454Z,96277.69
2022-07-26T08:04:08.081Z,96271.59
2022-07-26T08:06:34.851Z,96269.19
2022-07-26T08:09:01.559Z,96274.63
2022-07-26T08:11:30.556Z,96276.75
2022-07-26T08:14:01.102Z,96275.81
2022-07-26T08:16:29.499Z,96277.47
2022-07-26T08:18:57.252Z,96274.97
2022-07-26T08:21:24.680Z,96266.72
2022-07-26T08:26:38.917Z,96268.50
2022-07-26T08:29:05.557Z,96274.28
2022-07-26T08:31:37.186Z,96271.25
2022-07-26T08:34:04.598Z,96276.22
2022-07-26T08:36:32.978Z,96271.81
2022-07-26T08:39:00.965Z,96276.72
2022-07-26T08:41:27.539Z,96275.16
2022-07-26T08:43:54.246Z,96272.19
2022-07-26T08:46:24.878Z,96278.59
2022-07-26T08:48:53.014Z,96279.88
2022-07-26T08:51:19.924Z,96265.09
2022-07-26T08:53:46.693Z,96274.09
2022-07-26T08:56:15.673Z,96279.34
2022-07-26T09:01:14.208Z,96281.47
2022-07-26T09:03:41.086Z,96274.91
2022-07-26T09:06:07.792Z,96276.97
2022-07-26T09:08:38.736Z,96276.03
2022-07-26T09:11:07.815Z,96275.84
2022-07-26T09:13:36.524Z,96284.38
2022-07-26T09:16:03.538Z,96269.94
2022-07-26T09:18:30.535Z,96272.63
2022-07-26T09:20:58.888Z,96261.28
2022-07-26T09:23:25.881Z,96261.38
2022-07-26T09:25:52.420Z,96253.22
2022-07-26T09:28:18.941Z,96259.63
2022-07-26T09:30:45.590Z,96262.38
2022-07-26T09:33:12.119Z,96265.06
2022-07-26T09:35:50.597Z,96262.94
2022-07-26T09:38:18.359Z,96258.31
2022-07-26T09:40:51.069Z,96266.63
2022-07-26T09:43:19.891Z,96264.84
2022-07-26T09:45:51.304Z,96265.03
2022-07-26T09:48:23.265Z,96274.09
2022-07-26T09:50:51.792Z,96272.84
2022-07-26T09:53:19.228Z,96275.38
2022-07-26T09:55:45.908Z,96265.06
2022-07-26T09:58:12.520Z,96265.94
2022-07-26T10:00:39.361Z,96267.06
2022-07-26T10:03:06.849Z,96264.69
2022-07-26T10:05:33.620Z,96263.06
2022-07-26T10:08:00.940Z,96265.56
2022-07-26T10:10:28.321Z,96265.06
2022-07-26T10:12:54.915Z,96265.94
2022-07-26T10:15:22.262Z,96263.22
2022-07-26T10:17:49.364Z,96259.97
2022-07-26T10:20:24.418Z,96258.69
2022-07-26T10:22:51.321Z,96258.28
2022-07-26T10:25:20.441Z,96257.38
2022-07-26T10:27:49.914Z,96256.47
2022-07-26T10:30:23.949Z,96254.09
2022-07-26T10:32:50.934Z,96239.28
2022-07-26T10:35:18.390Z,96248.84
2022-07-26T10:37:45.031Z,96245.22
2022-07-26T10:40:12.629Z,96240.94
2022-07-26T10:42:39.365Z,96248.03
2022-07-26T10:45:05.874Z,96242.91
2022-07-26T10:47:35.483Z,96246.72
2022-07-26T10:50:02.730Z,96238.03
2022-07-26T10:52:29.502Z,96240.31
2022-07-26T10:54:56.347Z,96241.94
2022-07-26T10:57:22.924Z,96237.94
2022-07-26T10:59:56.991Z,96235.56
2022-07-26T11:02:24.018Z,96226.59
2022-07-26T11:04:51.017Z,96226.41
2022-07-26T11:07:17.575Z,96227.66
2022-07-26T11:09:44.470Z,96222.16
2022-07-26T11:12:11.223Z,96226.88
2022-07-26T11:14:38.025Z,96218.88
2022-07-26T11:17:04.975Z,96213.38
2022-07-26T11:19:31.602Z,96211.25
2022-07-26T11:21:58.497Z,96205.22
2022-07-26T11:24:25.160Z,96210.72
2022-07-26T11:26:54.963Z,96205.81
2022-07-26T11:29:22.275Z,96199.06
2022-07-26T11:31:59.706Z,96199.72
2022-07-26T11:34:28.093Z,96207.78
2022-07-26T11:36:55.393Z,96201.75
2022-07-26T11:39:22.138Z,96195.94
2022-07-26T11:41:48.835Z,96200.44
2022-07-26T11:44:15.845Z,96197.66
2022-07-26T11:46:45.001Z,96192.41
2022-07-26T11:49:11.831Z,96189.59
2022-07-26T11:51:38.580Z,96181.41
2022-07-26T11:54:05.357Z,96184.09
2022-07-26T11:56:32.030Z,96178.63
2022-07-26T11:58:58.840Z,96177.84
2022-07-26T12:01:26.145Z,96167.16
2022-07-26T12:03:53.031Z,96167.69
2022-07-26T12:06:19.679Z,96167.28
2022-07-26T12:08:46.376Z,96162.91
2022-07-26T12:11:13.859Z,96158.72
2022-07-26T12:13:55.401Z,96161.19
2022-07-26T12:16:22.607Z,96168.41
2022-07-26T12:18:49.379Z,96171.16
2022-07-26T12:21:16.256Z,96162.25
2022-07-26T12:23:43.171Z,96159.28
2022-07-26T12:26:10.139Z,96165.00
2022-07-26T12:28:37.327Z,96164.28
2022-07-26T12:31:04.129Z,96159.06
2022-07-26T12:33:30.775Z,96162.91
2022-07-26T12:35:57.603Z,96159.34
2022-07-26T12:38:24.318Z,96153.34
2022-07-26T12:40:51.084Z,96141.78
2022-07-26T12:43:17.898Z,96140.41
2022-07-26T12:45:44.530Z,96150.63
2022-07-26T12:48:11.527Z,96139.72
2022-07-26T12:50:38.365Z,96131.94
2022-07-26T12:53:05.566Z,96130.84
2022-07-26T12:55:33.661Z,96126.13
2022-07-26T12:58:00.500Z,96134.91
2022-07-26T13:00:28.606Z,96131.84
2022-07-26T13:05:40.513Z,96122.34
2022-07-26T13:08:07.243Z,96113.44
2022-07-26T13:10:35.372Z,96112.50
2022-07-26T13:13:02.715Z,96106.72
2022-07-26T13:15:36.229Z,96106.69
2022-07-26T13:18:04.533Z,96104.72
2022-07-26T13:20:31.134Z,96110.38
2022-07-26T13:22:57.685Z,96103.53
2022-07-26T13:25:24.663Z,96106.00
2022-07-26T13:27:52.714Z,96105.44
2022-07-26T13:30:19.537Z,96105.78
2022-07-26T13:32:46.083Z,96108.66
2022-07-26T13:35:12.946Z,96102.38
2022-07-26T13:37:39.695Z,96100.16
2022-07-26T13:40:06.335Z,96106.75
2022-07-26T13:42:36.865Z,96105.28
2022-07-26T13:45:03.823Z,96100.88
2022-07-26T13:47:34.202Z,96094.31
2022-07-26T13:50:00.842Z,96091.38
2022-07-26T13:52:27.862Z,96096.75
2022-07-26T13:54:54.576Z,96088.66
2022-07-26T13:57:21.664Z,96106.53
2022-07-26T13:59:53.876Z,96099.69
2022-07-26T14:02:20.873Z,96090.13
2022-07-26T14:04:47.861Z,96088.81
2022-07-26T14:07:15.222Z,96088.69
2022-07-26T14:09:41.820Z,96097.41
2022-07-26T14:12:08.696Z,96081.78
2022-07-26T14:14:35.318Z,96092.75
2022-07-26T14:17:02.346Z,96089.59
2022-07-26T14:19:29.058Z,96089.25
2022-07-26T14:22:00.068Z,96092.03
2022-07-26T14:24:27.958Z,96092.94
2022-07-26T14:26:58.932Z,96087.97
2022-07-26T14:29:27.168Z,96093.19
2022-07-26T14:31:54.155Z,96092.50
2022-07-26T14:34:20.875Z,96086.22
2022-07-26T14:36:50.233Z,96090.72
2022-07-26T14:39:24.446Z,96084.22
2022-07-26T14:41:51.004Z,96086.00
2022-07-26T14:44:18.044Z,96080.31
2022-07-26T14:46:44.541Z,96076.69
2022-07-26T14:49:11.241Z,96083.47
2022-07-26T14:51:37.900Z,96078.63
2022-07-26T14:54:08.781Z,96079.09
2022-07-26T14:56:36.562Z,96090.09
2022-07-26T14:59:03.469Z,96074.72
2022-07-26T15:01:30.798Z,96068.13
2022-07-26T15:03:58.443Z,96069.88
2022-07-26T15:06:26.861Z,96070.72
2022-07-26T15:08:53.714Z,96066.38
2022-07-26T15:11:20.508Z,96070.81
2022-07-26T15:13:49.526Z,96078.06
2022-07-26T15:16:25.317Z,96072.75
2022-07-26T15:18:52.125Z,96058.59
2022-07-26T15:21:18.884Z,96065.88
2022-07-26T15:23:45.483Z,96068.47
2022-07-26T15:26:16.449Z,96056.22
2022-07-26T15:28:43.123Z,96061.47
2022-07-26T15:31:09.656Z,96053.56
2022-07-26T15:33:36.522Z,96050.41
2022-07-26T15:36:06.478Z,96048.44
2022-07-26T15:38:34.157Z,96047.88
2022-07-26T15:41:01.620Z,96052.06
2022-07-26T15:43:48.910Z,96044.84
2022-07-26T15:46:16.022Z,96041.00
2022-07-26T15:48:44.828Z,96052.63
2022-07-26T15:51:11.558Z,96043.56
2022-07-26T15:53:41.801Z,96040.25
2022-07-26T15:56:12.174Z,96033.47
2022-07-26T15:58:38.908Z,96038.34
2022-07-26T16:01:06.458Z,96042.31
2022-07-26T16:03:33.408Z,96040.81
2022-07-26T16:06:04.062Z,96031.41
2022-07-26T16:08:47.466Z,96035.19
2022-07-26T16:11:23.354Z,96035.19
2022-07-26T16:13:50.029Z,96033.16
2022-07-26T16:16:16.874Z,96036.97
2022-07-26T16:18:44.411Z,96035.94
2022-07-26T16:21:11.107Z,96037.88
2022-07-26T16:23:37.842Z,96027.53
2022-07-26T16:26:05.045Z,96041.06
2022-07-26T16:28:32.541Z,96031.91
2022-07-26T16:30:59.181Z,96028.66
2022-07-26T16:33:25.908Z,96033.53
2022-07-26T16:35:55.030Z,96025.78
2022-07-26T16:38:21.748Z,96028.50
2022-07-26T16:40:51.837Z,96031.75
2022-07-26T16:43:21.088Z,96034.84
2022-07-26T16:45:51.175Z,96023.59
2022-07-26T16:48:18.953Z,96026.88
2022-07-26T16:50:46.383Z,96021.84
2022-07-26T16:53:14.085Z,96025.78
2022-07-26T16:55:41.114Z,96028.41
2022-07-26T16:58:07.968Z,96027.63
2022-07-26T17:00:34.791Z,96033.31
2022-07-26T17:03:02.843Z,96041.22
2022-07-26T17:05:29.504Z,96039.00
2022-07-26T17:07:56.070Z,96037.34
2022-07-26T17:10:26.045Z,96030.84
2022-07-26T17:12:52.693Z,96020.88
2022-07-26T17:15:19.337Z,96039.06
2022-07-26T17:17:48.927Z,96036.47
2022-07-26T17:20:15.890Z,96045.53
2022-07-26T17:22:42.497Z,96027.88
2022-07-26T17:25:09.129Z,96035.44
2022-07-26T17:27:35.692Z,96038.78
2022-07-26T17:30:06.876Z,96040.94
2022-07-26T17:32:34.725Z,96052.59
2022-07-26T17:35:03.708Z,96040.72
2022-07-26T17:37:30.717Z,96040.59
2022-07-26T17:39:59.163Z,96032.66
2022-07-26T17:42:26.875Z,96046.50
2022-07-26T17:44:53.877Z,96040.09
2022-07-26T17:47:29.667Z,96036.22
2022-07-26T17:50:01.358Z,96045.06
2022-07-26T17:52:35.931Z,96040.06
2022-07-26T17:55:02.812Z,96035.72
2022-07-26T17:57:29.767Z,96046.16
2022-07-26T17:59:57.630Z,96048.66
2022-07-26T18:02:25.875Z,96054.97
2022-07-26T18:04:52.798Z,96054.75
2022-07-26T18:07:19.374Z,96056.78
2022-07-26T18:09:46.368Z,96052.78
2022-07-26T18:12:15.316Z,96052.25
2022-07-26T18:14:42.162Z,96049.50
2022-07-26T18:17:08.864Z,96056.50
2022-07-26T18:19:37.992Z,96053.13
2022-07-26T18:22:06.240Z,96054.66
2022-07-26T18:24:33.483Z,96058.75
2022-07-26T18:27:00.079Z,96056.56
2022-07-26T18:29:28.452Z,96050.75
2022-07-26T18:31:57.326Z,96062.34
2022-07-26T18:34:24.042Z,96056.91
2022-07-26T18:36:50.838Z,96047.66
2022-07-26T18:39:17.766Z,96050.53
2022-07-26T18:41:44.290Z,96050.50
2022-07-26T18:44:10.915Z,96057.97
2022-07-26T18:46:39.529Z,96057.66
2022-07-26T18:49:07.114Z,96050.03
2022-07-26T18:51:34.047Z,96062.19
2022-07-26T18:54:02.013Z,96063.09
2022-07-26T18:56:29.743Z,96065.53
2022-07-26T18:58:57.329Z,96067.88
2022-07-26T19:01:26.802Z,96083.53
2022-07-26T19:03:53.476Z,96064.88
2022-07-26T19:06:20.217Z,96069.22
2022-07-26T19:08:48.296Z,96073.50
2022-07-26T19:11:15.113Z,96066.97
2022-07-26T19:13:41.825Z,96071.69
2022-07-26T19:16:09.185Z,96073.72
2022-07-26T19:18:47.073Z,96077.72
2022-07-26T19:21:15.858Z,96073.50
2022-07-26T19:23:42.607Z,96087.63
2022-07-26T19:26:09.176Z,96085.09
2022-07-26T19:28:35.718Z,96085.78
2022-07-26T19:31:03.198Z,96076.28
2022-07-26T19:33:30.092Z,96100.75
2022-07-26T19:35:56.764Z,96090.50
2022-07-26T19:38:23.654Z,96090.44
2022-07-26T19:40:50.308Z,96089.75
2022-07-26T19:43:19.109Z,96090.84
2022-07-26T19:45:48.539Z,96091.44
2022-07-26T19:48:15.200Z,96095.88
2022-07-26T19:50:41.706Z,96093.41
2022-07-26T19:53:08.537Z,96098.94
2022-07-26T19:55:35.088Z,96099.56
2022-07-26T19:58:01.703Z,96099.34
2022-07-26T20:00:30.400Z,96100.19
2022-07-26T20:02:57.304Z,96099.84
2022-07-26T20:05:24.057Z,96099.03
2022-07-26T20:07:52.839Z,96100.19
2022-07-26T20:15:48.684Z,96103.03
2022-07-26T20:18:15.144Z,96102.06
2022-07-26T20:20:42.028Z,96110.28
2022-07-26T20:23:09.897Z,96100.97
2022-07-26T20:25:36.663Z,96103.63
2022-07-26T20:28:03.191Z,96107.50
2022-07-26T20:30:29.960Z,96108.53
2022-07-26T20:32:58.085Z,96110.47
2022-07-26T20:35:24.578Z,96113.72
2022-07-26T20:37:51.680Z,96122.13
2022-07-26T20:40:18.727Z,96115.34
2022-07-26T20:42:45.379Z,96112.84
2022-07-26T20:45:14.844Z,96115.72
2022-07-26T20:47:41.660Z,96118.13
2022-07-26T20:50:08.132Z,96117.81
2022-07-26T20:52:35.661Z,96111.44
2022-07-26T20:55:02.171Z,96109.94
2022-07-26T20:57:32.318Z,96112.91
2022-07-26T21:00:00.190Z,96099.41
2022-07-26T21:02:26.957Z,96108.06
2022-07-26T21:04:53.721Z,96104.47
2022-07-26T21:07:20.974Z,96108.00
2022-07-26T21:09:47.410Z,96108.59
2022-07-26T21:12:13.938Z,96107.69
2022-07-26T21:14:41.419Z,96109.88
2022-07-26T21:17:11.564Z,96102.06
2022-07-26T21:19:38.563Z,96105.16
2022-07-26T21:22:06.823Z,96106.63
2022-07-26T21:24:33.390Z,96117.63
2022-07-26T21:27:00.159Z,96105.25
2022-07-26T21:29:26.779Z,96106.38
2022-07-26T21:31:54.662Z,96102.88
2022-07-26T21:34:21.479Z,96104.91
2022-07-26T21:36:48.216Z,96111.41
2022-07-26T21:39:15.116Z,96103.44
2022-07-26T21:41:42.149Z,96098.59
2022-07-26T21:44:08.633Z,96097.03
2022-07-26T21:46:35.253Z,96092.44
2022-07-26T21:49:01.860Z,96101.56
2022-07-26T21:51:32.245Z,96099.38
2022-07-26T21:53:58.714Z,96101.94
2022-07-26T21:56:28.235Z,96103.72
2022-07-26T21:58:55.292Z,96106.94
2022-07-26T22:01:21.796Z,96108.09
2022-07-26T22:03:48.362Z,96114.56
2022-07-26T22:06:14.935Z,96123.59
2022-07-26T22:08:43.013Z,96113.50
2022-07-26T22:11:09.884Z,96107.03
2022-07-26T22:13:37.443Z,96119.97
2022-07-26T22:16:04.090Z,96123.53
2022-07-26T22:18:30.782Z,96113.56
2022-07-26T22:21:00.026Z,96113.78
2022-07-26T22:23:26.478Z,96134.94
2022-07-26T22:28:35.285Z,96127.38
2022-07-26T22:31:01.784Z,96124.75
2022-07-26T22:33:28.266Z,96132.09
2022-07-26T22:35:55.042Z,96120.47
2022-07-26T22:38:23.244Z,96105.25
2022-07-26T22:40:51.727Z,96108.00
2022-07-26T22:43:18.295Z,96118.22
2022-07-26T22:45:44.952Z,96101.44
2022-07-26T22:48:14.093Z,96108.69
2022-07-26T22:50:40.837Z,96114.25
2022-07-26T22:53:07.555Z,96109.31
2022-07-26T22:55:34.533Z,96118.66
2022-07-26T22:58:01.084Z,96112.69
2022-07-26T23:00:27.546Z,96112.34
2022-07-26T23:02:54.346Z,96104.59
2022-07-26T23:05:21.107Z,96120.00
2022-07-26T23:07:48.016Z,96118.69
2022-07-26T23:10:15.073Z,96116.50
2022-07-26T23:12:41.581Z,96114.69
2022-07-26T23:15:09.923Z,96128.88
2022-07-26T23:17:37.642Z,96122.00
2022-07-26T23:20:04.316Z,96117.31
2022-07-26T23:22:34.609Z,96114.94
2022-07-26T23:25:01.051Z,96124.81
2022-07-26T23:27:27.533Z,96115.84
2022-07-26T23:29:57.357Z,96123.72
2022-07-26T23:32:24.223Z,96118.44
2022-07-26T23:34:50.858Z,96123.97
2022-07-26T23:37:18.421Z,96129.94
2022-07-26T23:39:46.093Z,96126.47
2022-07-26T23:42:12.628Z,96115.31
2022-07-26T23:44:42.622Z,96119.25
2022-07-26T23:47:09.525Z,96116.41
2022-07-26T23:49:36.041Z,96121.28
2022-07-26T23:52:02.579Z,96111.59
2022-07-26T23:54:29.239Z,96122.47
2022-07-26T23:56:55.746Z,96110.16
2022-07-26T23:59:23.779Z,96122.66
